Terminal Aerodrome Forecast
Issued by NWS Upton, NY

Home | Current Version | Previous Version | Text Only | Print | Product List | Glossary On
Versions: 1 2 3 4 5 6 7 8 9 10 11 12 13 14 15 16 17 18 19 20 21 22 23 24 25 26 27 28 29 30 31 32
000
FTUS41 KOKX 260550
TAFEWR
TAF
KEWR 260550Z 2606/2712 23008KT P6SM FEW250
     FM261600 25009KT P6SM BKN070
     FM261900 24010G18KT P6SM VCTS BKN060CB
     FM262300 25008KT P6SM -SHRA VCTS BKN050CB PROB30 2623/2701 4SM
      TS
     FM270600 VRB04KT 5SM -SHRA OVC050
     FM271000 03006KT 6SM -RA OVC030=

USA.gov is the U.S. government's official web portal to all federal, state and local government web resources and services.